Time;durP1;ratioP1;P1;durP2;ratioP2;P2;SDS_P1;SDS_P2;PMS_P1;PMS_P2;Temp;Humidity;BMP_temperature;BMP_pressure;BME280_temperature;BME280_humidity;BME280_pressure;Samples;Min_cycle;Max_cycle;Signal;HPM_P1;HPM_P2
2021/09/17 00:01:20;;;;;;;36.55;10.68;;;614.80;2278.40;;;;;;5040547;28;20027;-76
2021/09/17 00:03:46;;;;;;;33.00;9.82;;;614.80;2278.40;;;;;;5034100;28;20041;-77
2021/09/17 00:06:11;;;;;;;34.17;10.55;;;614.80;2278.40;;;;;;5033576;28;20051;-80
2021/09/17 00:08:37;;;;;;;41.05;10.18;;;614.80;2304.00;;;;;;5032332;28;20025;-76
2021/09/17 00:11:03;;;;;;;38.90;10.73;;;614.80;2329.60;;;;;;5033683;28;20032;-78
2021/09/17 00:13:29;;;;;;;35.15;10.65;;;614.80;2329.60;;;;;;5033483;28;20032;-80
2021/09/17 00:15:55;;;;;;;32.88;10.00;;;614.60;2329.60;;;;;;5033460;28;20106;-76
2021/09/17 00:18:21;;;;;;;38.90;11.75;;;614.70;2329.60;;;;;;5037475;28;20021;-76
2021/09/17 00:20:46;;;;;;;33.88;11.05;;;614.60;2380.80;;;;;;5038476;28;20377;-77
2021/09/17 00:23:12;;;;;;;39.72;12.95;;;614.50;2380.80;;;;;;5033304;28;20021;-77
2021/09/17 00:25:38;;;;;;;40.15;12.35;;;614.50;2380.80;;;;;;5032685;28;20033;-76
2021/09/17 00:28:04;;;;;;;38.83;12.07;;;614.50;2380.80;;;;;;5042997;28;20480;-77
2021/09/17 00:30:29;;;;;;;31.77;11.18;;;614.50;2380.80;;;;;;5033340;28;20022;-80
2021/09/17 00:32:56;;;;;;;34.33;12.00;;;589.70;2380.80;;;;;;5033366;28;20025;-76
2021/09/17 00:35:22;;;;;;;38.30;12.32;;;589.60;2406.40;;;;;;5031953;28;20075;-77
2021/09/17 00:37:48;;;;;;;33.35;11.32;;;589.60;2406.40;;;;;;5037670;28;20029;-76
2021/09/17 00:40:14;;;;;;;31.00;10.50;;;589.60;2380.80;;;;;;5031727;28;20057;-76
2021/09/17 00:42:39;;;;;;;32.92;11.10;;;589.70;2355.20;;;;;;5033047;28;20036;-80
2021/09/17 00:45:07;;;;;;;33.67;11.57;;;589.70;2355.20;;;;;;5033186;28;20029;-76
2021/09/17 00:47:34;;;;;;;28.85;10.55;;;589.70;2355.20;;;;;;5033347;28;20026;-76
2021/09/17 00:50:00;;;;;;;35.90;10.85;;;589.50;2355.20;;;;;;5032033;28;20097;-77
2021/09/17 00:52:26;;;;;;;37.70;10.85;;;614.40;2304.00;;;;;;5031703;28;20177;-76
2021/09/17 00:54:53;;;;;;;30.50;9.73;;;614.40;2304.00;;;;;;5032738;28;20038;-77
2021/09/17 00:57:19;;;;;;;30.55;9.23;;;614.40;2304.00;;;;;;5031734;28;20068;-81
2021/09/17 00:59:44;;;;;;;31.23;10.93;;;589.70;2304.00;;;;;;5032906;28;20438;-76
2021/09/17 01:02:10;;;;;;;28.80;8.02;;;614.40;2278.40;;;;;;5033179;28;20041;-81
2021/09/17 01:04:36;;;;;;;31.05;9.23;;;614.50;2201.60;;;;;;5033115;28;20037;-80
2021/09/17 01:07:02;;;;;;;32.45;9.13;;;614.70;2201.60;;;;;;5031681;28;20362;-79
2021/09/17 01:09:28;;;;;;;30.73;9.13;;;614.90;2227.20;;;;;;5032669;28;20358;-78
2021/09/17 01:11:54;;;;;;;22.35;8.75;;;614.80;2252.80;;;;;;5031519;28;20472;-77
2021/09/17 01:14:20;;;;;;;32.25;9.18;;;614.80;2252.80;;;;;;5031918;28;20017;-80
2021/09/17 01:16:46;;;;;;;28.92;9.75;;;614.70;2252.80;;;;;;5030023;28;20053;-78
2021/09/17 01:19:12;;;;;;;33.50;10.20;;;614.70;2278.40;;;;;;5032782;28;20053;-80
2021/09/17 01:21:38;;;;;;;29.15;9.15;;;614.70;2278.40;;;;;;5044275;28;20013;-77
2021/09/17 01:24:05;;;;;;;32.83;9.20;;;614.40;2252.80;;;;;;5050079;28;20100;-80
2021/09/17 01:26:31;;;;;;;21.00;8.60;;;589.70;2252.80;;;;;;5045335;28;20025;-81
2021/09/17 01:28:57;;;;;;;35.97;9.15;;;589.60;2252.80;;;;;;5045189;28;20040;-80
2021/09/17 01:31:22;;;;;;;31.35;9.15;;;589.70;2252.80;;;;;;5032809;28;20032;-76
2021/09/17 01:33:48;;;;;;;32.92;9.68;;;589.60;2252.80;;;;;;5040316;28;20029;-80
2021/09/17 01:36:14;;;;;;;38.08;10.43;;;589.70;2278.40;;;;;;5040481;28;20045;-80
2021/09/17 01:38:41;;;;;;;42.30;10.55;;;589.70;2252.80;;;;;;5033780;28;20083;-81
2021/09/17 01:41:08;;;;;;;41.67;10.82;;;589.50;2252.80;;;;;;5033239;28;20040;-82
2021/09/17 01:43:34;;;;;;;40.60;11.32;;;589.60;2278.40;;;;;;5036610;28;20103;-77
2021/09/17 01:46:00;;;;;;;38.60;11.57;;;589.70;2278.40;;;;;;5045991;28;20540;-75
2021/09/17 01:48:30;;;;;;;34.38;10.15;;;589.60;2278.40;;;;;;5049502;28;20028;-76
2021/09/17 01:50:55;;;;;;;40.60;11.27;;;589.60;2278.40;;;;;;5047800;28;20049;-81
2021/09/17 01:53:21;;;;;;;29.50;11.10;;;589.50;2278.40;;;;;;5039882;28;20056;-81
2021/09/17 01:55:47;;;;;;;37.42;11.00;;;589.50;2278.40;;;;;;5030576;28;20057;-81
2021/09/17 01:58:13;;;;;;;37.25;11.40;;;589.50;2304.00;;;;;;5036425;28;20385;-81
2021/09/17 02:00:39;;;;;;;41.03;11.23;;;589.60;2278.40;;;;;;5036302;28;20091;-77
2021/09/17 02:03:04;;;;;;;37.40;12.77;;;589.60;2304.00;;;;;;5035020;28;20465;-79
2021/09/17 02:05:31;;;;;;;33.72;11.05;;;589.50;2304.00;;;;;;5036103;28;20508;-76
2021/09/17 02:07:57;;;;;;;42.55;13.40;;;589.50;2304.00;;;;;;5034751;28;20048;-77
2021/09/17 02:10:24;;;;;;;38.70;12.88;;;589.40;2304.00;;;;;;5035784;28;20116;-81
2021/09/17 02:12:49;;;;;;;32.00;11.18;;;589.30;2304.00;;;;;;5036024;28;20030;-81
2021/09/17 02:15:16;;;;;;;42.80;12.82;;;589.30;2304.00;;;;;;5036020;28;20093;-76
2021/09/17 02:17:42;;;;;;;34.80;12.52;;;589.20;2329.60;;;;;;5034872;28;20030;-82
2021/09/17 02:20:08;;;;;;;39.10;13.05;;;589.10;2355.20;;;;;;5035003;28;20458;-81
2021/09/17 02:22:34;;;;;;;42.90;13.70;;;589.10;2355.20;;;;;;5035125;28;20072;-76
2021/09/17 02:25:01;;;;;;;34.10;12.50;;;589.10;2329.60;;;;;;5035739;28;20057;-78
2021/09/17 02:27:27;;;;;;;46.75;14.32;;;589.20;2329.60;;;;;;5034571;28;20017;-76
2021/09/17 02:29:53;;;;;;;51.30;18.55;;;589.20;2304.00;;;;;;5036120;28;20025;-81
2021/09/17 02:32:19;;;;;;;45.00;19.08;;;589.20;2278.40;;;;;;5035984;28;20564;-76
2021/09/17 02:34:45;;;;;;;55.05;22.65;;;589.40;2278.40;;;;;;5035647;28;20052;-79
2021/09/17 02:37:10;;;;;;;51.05;20.67;;;589.40;2278.40;;;;;;5035725;28;20084;-77
2021/09/17 02:39:36;;;;;;;45.83;19.27;;;589.40;2252.80;;;;;;5035343;28;20022;-81
2021/09/17 02:42:04;;;;;;;45.53;17.20;;;589.40;2252.80;;;;;;5034665;28;20033;-82
2021/09/17 02:44:30;;;;;;;46.85;16.58;;;589.40;2252.80;;;;;;5036554;28;20020;-77
2021/09/17 02:46:56;;;;;;;48.15;16.55;;;589.30;2252.80;;;;;;5052323;28;20025;-79
2021/09/17 02:49:21;;;;;;;57.85;19.20;;;589.50;2252.80;;;;;;5043599;28;20067;-82
2021/09/17 02:51:47;;;;;;;57.95;18.55;;;589.60;2252.80;;;;;;5034265;28;20021;-76
2021/09/17 02:54:13;;;;;;;40.47;14.07;;;589.60;2278.40;;;;;;5035239;28;20124;-77
2021/09/17 02:56:39;;;;;;;49.10;14.57;;;589.50;2278.40;;;;;;5033718;28;20164;-76
2021/09/17 02:59:05;;;;;;;34.83;13.02;;;589.50;2227.20;;;;;;5035252;28;20032;-79
2021/09/17 03:01:30;;;;;;;37.90;13.35;;;589.40;2227.20;;;;;;5035277;28;20063;-82
2021/09/17 03:03:56;;;;;;;32.17;10.25;;;589.30;2252.80;;;;;;5035346;28;20461;-80
2021/09/17 03:06:22;;;;;;;42.72;11.45;;;589.20;2227.20;;;;;;5041834;28;20025;-82
2021/09/17 03:08:49;;;;;;;35.78;11.20;;;589.20;2252.80;;;;;;5039312;28;20523;-82
2021/09/17 03:11:15;;;;;;;37.10;10.88;;;589.20;2252.80;;;;;;5033826;28;20029;-78
2021/09/17 03:13:40;;;;;;;38.47;11.40;;;589.10;2252.80;;;;;;5035065;28;20021;-76
2021/09/17 03:16:07;;;;;;;33.92;11.23;;;589.10;2252.80;;;;;;5034752;28;20058;-77
2021/09/17 03:18:34;;;;;;;40.92;11.02;;;589.10;2252.80;;;;;;5034909;28;20112;-82
2021/09/17 03:21:00;;;;;;;35.50;11.18;;;589.00;2278.40;;;;;;5034948;28;20532;-82
2021/09/17 03:23:26;;;;;;;34.75;11.68;;;589.00;2278.40;;;;;;5033903;28;20061;-81
2021/09/17 03:25:52;;;;;;;39.17;11.93;;;588.90;2278.40;;;;;;5049449;28;20061;-82
2021/09/17 03:28:17;;;;;;;34.58;10.93;;;588.80;2278.40;;;;;;5045628;28;20021;-82
2021/09/17 03:30:43;;;;;;;45.38;13.27;;;588.80;2304.00;;;;;;5035623;28;20045;-82
2021/09/17 03:33:11;;;;;;;33.30;11.98;;;588.80;2304.00;;;;;;5034789;28;20055;-82
2021/09/17 03:35:38;;;;;;;39.38;11.50;;;588.90;2304.00;;;;;;5034508;28;20033;-81
2021/09/17 03:38:05;;;;;;;33.58;11.50;;;588.90;2304.00;;;;;;5034608;28;20512;-77
2021/09/17 03:40:33;;;;;;;39.00;12.57;;;588.90;2304.00;;;;;;5034324;28;20092;-82
2021/09/17 03:42:59;;;;;;;37.50;12.45;;;588.80;2304.00;;;;;;5033318;28;20385;-81
2021/09/17 03:45:25;;;;;;;39.20;12.43;;;588.90;2304.00;;;;;;5034629;28;20024;-80
2021/09/17 03:47:50;;;;;;;37.38;11.20;;;564.10;2329.60;;;;;;5033162;28;20045;-82
2021/09/17 03:50:16;;;;;;;39.88;12.70;;;564.10;2329.60;;;;;;5034387;28;20017;-82
2021/09/17 03:52:42;;;;;;;39.58;10.57;;;564.10;2329.60;;;;;;5034352;28;20385;-76
2021/09/17 03:55:08;;;;;;;34.38;11.98;;;564.00;2355.20;;;;;;5033840;28;20048;-80
2021/09/17 03:57:34;;;;;;;41.58;13.10;;;564.00;2355.20;;;;;;5046598;28;20400;-80
2021/09/17 04:00:00;;;;;;;46.50;11.20;;;564.10;2355.20;;;;;;5031350;28;20112;-82
2021/09/17 04:02:25;;;;;;;34.08;11.75;;;564.10;2355.20;;;;;;5032524;28;20021;-80
2021/09/17 04:04:51;;;;;;;43.05;12.40;;;564.10;2329.60;;;;;;5032865;28;20022;-82
2021/09/17 04:07:17;;;;;;;44.00;11.93;;;564.10;2329.60;;;;;;5033933;28;20536;-79
2021/09/17 04:09:43;;;;;;;45.22;12.13;;;564.10;2329.60;;;;;;5033913;28;20097;-83
2021/09/17 04:12:08;;;;;;;40.13;11.85;;;564.10;2355.20;;;;;;5033827;28;20485;-79
2021/09/17 04:14:34;;;;;;;36.58;11.55;;;564.10;2329.60;;;;;;5031419;28;20028;-78
2021/09/17 04:17:00;;;;;;;39.83;12.13;;;564.10;2355.20;;;;;;5032662;28;20034;-83
2021/09/17 04:19:25;;;;;;;43.47;13.20;;;564.10;2329.60;;;;;;5033879;28;20544;-77
2021/09/17 04:21:51;;;;;;;36.95;12.82;;;564.10;2329.60;;;;;;5033635;28;20060;-83
2021/09/17 04:24:17;;;;;;;33.75;13.13;;;564.10;2329.60;;;;;;5040066;28;20074;-82
2021/09/17 04:26:42;;;;;;;33.92;12.40;;;564.10;2329.60;;;;;;5037592;28;20111;-82
2021/09/17 04:29:08;;;;;;;38.67;11.82;;;588.80;2329.60;;;;;;5033582;28;20377;-79
2021/09/17 04:31:34;;;;;;;35.25;12.77;;;588.90;2329.60;;;;;;5030733;28;20025;-79
2021/09/17 04:34:00;;;;;;;33.72;13.00;;;588.90;2304.00;;;;;;5033757;28;21342;-77
2021/09/17 04:36:25;;;;;;;39.17;13.93;;;588.90;2329.60;;;;;;5033435;28;20039;-82
2021/09/17 04:38:51;;;;;;;34.25;13.68;;;589.00;2304.00;;;;;;5031694;28;20064;-82
2021/09/17 04:41:17;;;;;;;53.47;14.35;;;588.90;2304.00;;;;;;5033399;28;20100;-82
2021/09/17 04:43:43;;;;;;;49.17;12.50;;;588.90;2304.00;;;;;;5029035;28;20048;-81
2021/09/17 04:46:09;;;;;;;45.67;12.68;;;589.00;2304.00;;;;;;5033295;28;20473;-79
2021/09/17 04:48:35;;;;;;;39.13;12.23;;;589.10;2278.40;;;;;;5032302;28;20024;-80
2021/09/17 04:51:00;;;;;;;45.63;12.50;;;589.10;2278.40;;;;;;5032178;28;20390;-80
2021/09/17 04:53:26;;;;;;;35.72;13.80;;;589.30;2252.80;;;;;;5033357;28;20018;-77
2021/09/17 04:55:52;;;;;;;42.78;12.25;;;589.40;2252.80;;;;;;5032729;28;20136;-77
2021/09/17 04:58:18;;;;;;;39.70;13.57;;;589.40;2278.40;;;;;;5039447;28;20037;-82
2021/09/17 05:00:44;;;;;;;44.95;13.75;;;589.40;2278.40;;;;;;5045560;28;20034;-80
2021/09/17 05:03:09;;;;;;;50.30;17.58;;;589.40;2278.40;;;;;;5033151;28;20096;-77
2021/09/17 05:05:35;;;;;;;57.00;15.85;;;589.30;2278.40;;;;;;5031766;28;20017;-79
2021/09/17 05:08:01;;;;;;;31.85;12.23;;;589.10;2278.40;;;;;;5033072;28;20026;-80
2021/09/17 05:10:27;;;;;;;39.13;14.10;;;589.10;2278.40;;;;;;5033384;28;20021;-79
2021/09/17 05:12:53;;;;;;;41.53;13.43;;;589.30;2278.40;;;;;;5049316;28;20036;-77
2021/09/17 05:15:19;;;;;;;39.05;14.15;;;589.30;2304.00;;;;;;5053572;28;20052;-78
2021/09/17 05:17:45;;;;;;;47.70;14.15;;;589.40;2304.00;;;;;;5039507;28;20469;-78
2021/09/17 05:20:11;;;;;;;42.85;13.93;;;589.50;2304.00;;;;;;5051414;28;20041;-80
2021/09/17 05:22:37;;;;;;;44.15;16.13;;;589.40;2304.00;;;;;;5045994;28;20040;-78
2021/09/17 05:25:03;;;;;;;43.42;15.85;;;589.40;2278.40;;;;;;5056650;28;20029;-81
2021/09/17 05:27:29;;;;;;;50.17;16.48;;;589.50;2278.40;;;;;;5054037;28;20044;-83
2021/09/17 05:29:55;;;;;;;40.42;16.10;;;589.40;2304.00;;;;;;5036638;28;20049;-83
2021/09/17 05:32:21;;;;;;;41.22;16.48;;;589.40;2304.00;;;;;;5037148;28;20026;-78
2021/09/17 05:34:48;;;;;;;50.47;18.65;;;589.30;2329.60;;;;;;5036870;28;20164;-81
2021/09/17 05:37:14;;;;;;;51.00;23.30;;;589.20;2355.20;;;;;;5035509;28;20044;-78
2021/09/17 05:39:39;;;;;;;73.18;33.45;;;589.10;2355.20;;;;;;5035576;28;20017;-82
2021/09/17 05:42:06;;;;;;;72.38;34.13;;;589.10;2355.20;;;;;;5036568;28;20025;-82
2021/09/17 05:44:31;;;;;;;57.95;32.08;;;589.20;2355.20;;;;;;5036992;28;20107;-79
2021/09/17 05:46:57;;;;;;;67.15;32.20;;;589.30;2329.60;;;;;;5035281;28;20029;-77
2021/09/17 05:49:23;;;;;;;53.83;28.02;;;589.30;2329.60;;;;;;5036763;28;20117;-78
2021/09/17 05:51:48;;;;;;;52.53;28.38;;;589.30;2304.00;;;;;;5036734;28;20021;-77
2021/09/17 05:54:14;;;;;;;51.85;27.25;;;589.20;2304.00;;;;;;5036504;28;20470;-80
2021/09/17 05:56:40;;;;;;;59.33;28.05;;;589.20;2329.60;;;;;;5036458;28;20049;-86
2021/09/17 05:59:06;;;;;;;51.10;25.42;;;589.20;2329.60;;;;;;5037161;28;20434;-76
2021/09/17 06:01:32;;;;;;;55.53;23.80;;;589.30;2304.00;;;;;;5034862;28;20033;-80
2021/09/17 06:03:58;;;;;;;50.63;23.55;;;589.20;2278.40;;;;;;5034941;28;20052;-81
2021/09/17 06:06:24;;;;;;;41.28;18.70;;;589.30;2304.00;;;;;;5039601;28;20397;-77
2021/09/17 06:08:49;;;;;;;42.88;18.92;;;589.30;2278.40;;;;;;5043777;28;20021;-79
2021/09/17 06:11:16;;;;;;;42.28;17.25;;;589.40;2252.80;;;;;;5034449;28;20021;-77
2021/09/17 06:13:42;;;;;;;39.50;14.50;;;589.60;2252.80;;;;;;5036125;28;20017;-79
2021/09/17 06:16:08;;;;;;;42.08;14.85;;;589.70;2227.20;;;;;;5035512;28;20028;-78
2021/09/17 06:18:34;;;;;;;43.67;14.07;;;614.40;2227.20;;;;;;5039262;28;20037;-79
2021/09/17 06:20:59;;;;;;;33.08;13.48;;;614.50;2201.60;;;;;;5045396;28;20017;-78
2021/09/17 06:23:27;;;;;;;43.22;14.32;;;614.40;2176.00;;;;;;5038001;28;20037;-78
2021/09/17 06:25:56;;;;;;;38.10;14.07;;;614.40;2201.60;;;;;;5034251;28;20095;-83
2021/09/17 06:28:25;;;;;;;36.53;13.70;;;614.50;2201.60;;;;;;5033845;28;20021;-77
2021/09/17 06:30:52;;;;;;;49.42;15.20;;;614.60;2227.20;;;;;;5034497;28;20032;-83
2021/09/17 06:33:18;;;;;;;45.92;24.92;;;614.70;2201.60;;;;;;5035748;28;20100;-78
2021/09/17 06:35:44;;;;;;;35.95;14.13;;;614.70;2176.00;;;;;;5034504;28;20156;-79
2021/09/17 06:38:10;;;;;;;29.38;13.23;;;614.60;2176.00;;;;;;5035913;28;20025;-80
2021/09/17 06:40:36;;;;;;;38.50;12.52;;;614.60;2150.40;;;;;;5035658;28;20013;-86
2021/09/17 06:43:02;;;;;;;33.45;13.23;;;614.70;2201.60;;;;;;5040304;28;20382;-81
2021/09/17 06:45:29;;;;;;;44.28;14.73;;;614.70;2176.00;;;;;;5039664;28;20128;-88
2021/09/17 06:47:58;;;;;;;30.10;14.20;;;614.70;2176.00;;;;;;5034607;28;20044;-82
2021/09/17 06:50:25;;;;;;;31.90;13.23;;;614.70;2150.40;;;;;;5034183;28;20057;-81
2021/09/17 06:52:53;;;;;;;45.70;14.60;;;614.70;2176.00;;;;;;5034104;28;20484;-79
2021/09/17 06:55:21;;;;;;;37.85;15.40;;;614.80;2176.00;;;;;;5033997;28;20053;-81
2021/09/17 06:57:58;;;;;;;43.40;15.63;;;615.00;2150.40;;;;;;5033789;28;20124;-80
2021/09/17 07:00:26;;;;;;;47.50;16.73;;;615.10;2150.40;;;;;;5034058;28;20397;-81
2021/09/17 07:02:52;;;;;;;37.63;15.75;;;615.00;2150.40;;;;;;5035248;28;20022;-83
2021/09/17 07:05:18;;;;;;;44.47;16.42;;;615.20;2150.40;;;;;;5035316;28;20080;-81
2021/09/17 07:07:44;;;;;;;33.47;15.00;;;615.20;2150.40;;;;;;5035460;28;20029;-82
2021/09/17 07:10:11;;;;;;;41.30;16.50;;;615.20;2150.40;;;;;;5034140;28;20029;-84
2021/09/17 07:12:37;;;;;;;43.65;16.58;;;615.20;2150.40;;;;;;5033986;28;20072;-83
2021/09/17 07:15:07;;;;;;;44.92;16.40;;;615.30;2150.40;;;;;;5033718;28;20037;-79
2021/09/17 07:17:33;;;;;;;30.73;15.20;;;640.00;2150.40;;;;;;5033758;28;20033;-78
2021/09/17 07:19:59;;;;;;;44.78;15.55;;;640.00;2124.80;;;;;;5036289;28;20021;-89
2021/09/17 07:22:25;;;;;;;45.80;15.05;;;640.10;2099.20;;;;;;5041894;28;20041;-80
2021/09/17 07:24:51;;;;;;;35.63;15.90;;;640.10;2150.40;;;;;;5053420;28;20489;-85
2021/09/17 07:27:17;;;;;;;44.17;16.42;;;640.20;2099.20;;;;;;5035444;28;20040;-80
2021/09/17 07:29:43;;;;;;;40.95;16.08;;;640.20;2073.60;;;;;;5033069;28;20057;-84
2021/09/17 07:32:09;;;;;;;48.75;14.20;;;640.30;2073.60;;;;;;5034277;28;20021;-80
2021/09/17 07:34:35;;;;;;;38.03;14.35;;;640.50;2022.40;;;;;;5034946;28;20100;-77
2021/09/17 07:37:01;;;;;;;40.88;14.68;;;640.60;2022.40;;;;;;5033638;28;20061;-78
2021/09/17 07:39:28;;;;;;;42.05;14.23;;;640.70;1996.80;;;;;;5033378;28;20119;-79
2021/09/17 07:41:54;;;;;;;36.88;12.60;;;640.70;1996.80;;;;;;5032518;28;20076;-79
2021/09/17 07:44:19;;;;;;;42.33;14.80;;;640.90;1996.80;;;;;;5033832;28;20053;-78
2021/09/17 07:46:46;;;;;;;41.92;13.90;;;640.90;2048.00;;;;;;5033791;28;20029;-78
2021/09/17 07:49:11;;;;;;;36.58;12.38;;;665.60;2073.60;;;;;;5032585;28;20071;-80
2021/09/17 07:51:37;;;;;;;35.60;12.13;;;665.60;2073.60;;;;;;5033341;28;20025;-79
2021/09/17 07:54:03;;;;;;;39.10;11.15;;;665.60;2048.00;;;;;;5032748;28;20029;-79
2021/09/17 07:56:28;;;;;;;90.35;24.23;;;665.60;2073.60;;;;;;5033143;28;20049;-76
2021/09/17 07:58:54;;;;;;;36.85;13.02;;;665.70;2048.00;;;;;;5033454;28;20025;-77
2021/09/17 08:01:20;;;;;;;39.30;12.55;;;665.80;2048.00;;;;;;5033813;28;20470;-81
2021/09/17 08:03:46;;;;;;;38.30;12.98;;;665.70;2048.00;;;;;;5033912;28;20093;-80
2021/09/17 08:06:14;;;;;;;37.25;12.20;;;665.70;2022.40;;;;;;5033532;28;20041;-77
2021/09/17 08:08:40;;;;;;;38.78;12.88;;;665.70;2048.00;;;;;;5040382;28;20021;-78
2021/09/17 08:11:06;;;;;;;64.78;15.75;;;665.80;2048.00;;;;;;5037085;28;20503;-78
2021/09/17 08:13:32;;;;;;;39.97;13.52;;;665.80;2073.60;;;;;;5033253;28;20036;-78
2021/09/17 08:15:58;;;;;;;39.80;12.13;;;665.90;2048.00;;;;;;5033305;28;20057;-82
2021/09/17 08:18:25;;;;;;;44.80;13.05;;;665.90;2048.00;;;;;;5033639;28;20532;-78
2021/09/17 08:20:54;;;;;;;32.97;11.48;;;665.90;2022.40;;;;;;5032446;28;20025;-84
2021/09/17 08:23:20;;;;;;;33.22;12.00;;;666.00;1996.80;;;;;;5033647;28;20100;-81
2021/09/17 08:25:47;;;;;;;36.75;12.05;;;666.00;1996.80;;;;;;5033417;28;20040;-78
2021/09/17 08:28:13;;;;;;;32.00;10.85;;;666.10;1996.80;;;;;;5033678;28;20029;-82
2021/09/17 08:30:39;;;;;;;29.58;11.80;;;666.20;1996.80;;;;;;5032510;28;20104;-82
2021/09/17 08:33:05;;;;;;;33.90;10.75;;;666.30;2022.40;;;;;;5034247;28;20503;-79
2021/09/17 08:35:31;;;;;;;38.33;11.38;;;666.50;1996.80;;;;;;5038722;28;20017;-77
2021/09/17 08:37:56;;;;;;;36.47;11.15;;;666.50;1971.20;;;;;;5059245;28;20487;-77
2021/09/17 08:40:24;;;;;;;27.40;10.40;;;666.50;1920.00;;;;;;5044604;28;20046;-77
2021/09/17 08:42:50;;;;;;;35.70;10.38;;;666.50;1945.60;;;;;;5032874;28;20029;-84
2021/09/17 08:45:16;;;;;;;32.25;10.32;;;666.50;1945.60;;;;;;5046383;28;20020;-77
2021/09/17 08:47:48;;;;;;;147.60;23.63;;;691.20;1945.60;;;;;;5032712;28;20018;-84
2021/09/17 08:50:15;;;;;;;37.80;11.70;;;691.30;1971.20;;;;;;5033119;28;20053;-84
2021/09/17 08:52:41;;;;;;;55.40;17.45;;;691.40;1971.20;;;;;;5033058;28;20041;-76
2021/09/17 08:55:07;;;;;;;35.15;11.90;;;691.50;1996.80;;;;;;5032913;28;20493;-86
2021/09/17 08:57:35;;;;;;;36.17;13.40;;;691.60;1945.60;;;;;;5032734;28;20394;-83
2021/09/17 09:00:03;;;;;;;31.77;12.45;;;691.80;1945.60;;;;;;5033341;28;20082;-78
2021/09/17 09:02:30;;;;;;;47.40;16.92;;;691.90;1894.40;;;;;;5033305;28;20026;-79
2021/09/17 09:05:06;;;;;;;38.05;12.57;;;691.90;1894.40;;;;;;5033394;28;20466;-84
2021/09/17 09:07:38;;;;;;;34.25;13.52;;;692.00;1868.80;;;;;;5045490;28;20054;-77
2021/09/17 09:10:13;;;;;;;50.55;14.88;;;716.80;1843.20;;;;;;5041072;28;20028;-84
2021/09/17 09:12:43;;;;;;;51.58;23.13;;;716.80;1843.20;;;;;;5050651;28;20048;-80
2021/09/17 09:15:18;;;;;;;33.42;11.00;;;716.90;1894.40;;;;;;5032084;28;20029;-78
2021/09/17 09:17:46;;;;;;;32.77;10.23;;;716.90;1868.80;;;;;;5032905;28;20034;-84
2021/09/17 09:20:20;;;;;;;37.58;12.30;;;716.90;1843.20;;;;;;5033273;28;20018;-78
2021/09/17 09:23:14;;;;;;;40.88;12.00;;;716.90;1843.20;;;;;;5043098;28;20037;-79
2021/09/17 09:26:09;;;;;;;37.95;12.75;;;716.90;1843.20;;;;;;5026847;28;20039;-80
2021/09/17 09:28:36;;;;;;;35.60;10.88;;;717.00;1792.00;;;;;;5017240;28;20049;-83
2021/09/17 09:31:11;;;;;;;34.35;11.18;;;717.10;1792.00;;;;;;4997114;28;20556;-84
2021/09/17 09:33:39;;;;;;;38.17;12.23;;;717.10;1817.60;;;;;;4994740;28;20077;-78
2021/09/17 09:36:12;;;;;;;47.65;11.32;;;717.30;1817.60;;;;;;5008908;28;20048;-78
2021/09/17 09:38:55;;;;;;;37.85;11.32;;;717.40;1817.60;;;;;;5011125;28;20030;-84
2021/09/17 09:41:22;;;;;;;26.92;9.88;;;717.60;1766.40;;;;;;4994585;28;20018;-81
2021/09/17 09:43:58;;;;;;;35.95;10.30;;;717.70;1715.20;;;;;;5010737;28;20022;-81
2021/09/17 09:46:30;;;;;;;32.33;10.85;;;742.40;1766.40;;;;;;5005946;28;20041;-83
2021/09/17 09:49:08;;;;;;;33.42;9.20;;;742.50;1740.80;;;;;;5016821;28;20040;-77
2021/09/17 09:51:36;;;;;;;32.38;10.00;;;742.80;1689.60;;;;;;5009769;28;20117;-83
2021/09/17 09:54:04;;;;;;;31.80;9.82;;;742.90;1715.20;;;;;;5016708;28;20071;-84
2021/09/17 09:56:34;;;;;;;28.98;8.82;;;743.00;1664.00;;;;;;5010909;28;20048;-84
2021/09/17 09:59:06;;;;;;;24.17;7.95;;;743.30;1638.40;;;;;;5011940;28;20045;-83
2021/09/17 10:01:37;;;;;;;27.20;9.02;;;743.30;1664.00;;;;;;4998308;28;20018;-91
2021/09/17 10:04:04;;;;;;;30.00;12.65;;;743.30;1612.80;;;;;;4994414;28;20477;-80
2021/09/17 10:06:38;;;;;;;32.33;10.90;;;743.30;1587.20;;;;;;5034670;28;20037;-77
2021/09/17 10:09:06;;;;;;;31.30;9.38;;;743.00;1638.40;;;;;;5032460;28;20082;-78
2021/09/17 10:11:33;;;;;;;28.35;8.55;;;743.10;1638.40;;;;;;5035892;28;20108;-79
2021/09/17 10:14:05;;;;;;;28.02;9.45;;;743.10;1612.80;;;;;;5035761;28;20540;-80
2021/09/17 10:16:33;;;;;;;31.85;9.45;;;743.00;1612.80;;;;;;5034587;28;20041;-76
2021/09/17 10:18:59;;;;;;;27.98;8.98;;;743.00;1638.40;;;;;;5035802;28;20028;-79
2021/09/17 10:21:51;;;;;;;32.28;13.13;;;743.00;1587.20;;;;;;5048791;28;20057;-80
2021/09/17 10:24:26;;;;;;;29.77;8.98;;;743.00;1587.20;;;;;;5035065;28;20036;-81
2021/09/17 10:26:59;;;;;;;27.73;8.98;;;743.00;1638.40;;;;;;5055416;28;20028;-78
2021/09/17 10:29:33;;;;;;;26.15;8.60;;;743.20;1612.80;;;;;;5055193;28;20078;-78
2021/09/17 10:32:00;;;;;;;26.25;8.90;;;768.00;1587.20;;;;;;5055376;28;20036;-80
2021/09/17 10:34:32;;;;;;;31.75;8.02;;;768.30;1561.60;;;;;;5055678;28;20025;-80
2021/09/17 10:36:58;;;;;;;37.42;8.35;;;768.50;1536.00;;;;;;5054060;28;20033;-79
2021/09/17 10:39:23;;;;;;;18.42;7.13;;;768.90;1510.40;;;;;;5054694;28;20045;-79
2021/09/17 10:42:15;;;;;;;20.75;7.20;;;793.60;1536.00;;;;;;5055567;28;20071;-81
2021/09/17 10:45:02;;;;;;;22.50;7.68;;;794.00;1510.40;;;;;;5025539;28;20096;-79
2021/09/17 10:47:40;;;;;;;27.20;8.27;;;794.10;1484.80;;;;;;5048430;28;20013;-79
2021/09/17 10:50:12;;;;;;;27.20;7.75;;;793.70;1510.40;;;;;;5035395;28;20029;-84
2021/09/17 10:52:42;;;;;;;22.30;7.30;;;793.60;1510.40;;;;;;5035551;28;20030;-85
2021/09/17 10:55:28;;;;;;;21.65;6.68;;;768.80;1484.80;;;;;;5040323;28;20041;-84
2021/09/17 10:58:18;;;;;;;17.55;6.60;;;793.70;1510.40;;;;;;5038410;28;20092;-82
2021/09/17 11:00:54;;;;;;;20.15;6.80;;;793.70;1510.40;;;;;;5034811;28;20021;-81
2021/09/17 11:03:38;;;;;;;30.35;7.85;;;793.70;1510.40;;;;;;5034978;28;20474;-81
2021/09/17 11:06:23;;;;;;;23.15;7.60;;;793.80;1484.80;;;;;;5034385;28;20052;-85
2021/09/17 11:08:56;;;;;;;22.67;7.63;;;794.10;1510.40;;;;;;5033871;28;20025;-80
2021/09/17 11:11:29;;;;;;;22.52;8.18;;;794.30;1459.20;;;;;;5034039;28;20017;-82
2021/09/17 11:14:08;;;;;;;27.42;7.63;;;794.50;1459.20;;;;;;5034592;28;20030;-80
2021/09/17 11:16:34;;;;;;;19.67;7.32;;;819.30;1433.60;;;;;;5033179;28;20026;-82
2021/09/17 11:19:08;;;;;;;24.98;7.35;;;819.60;1459.20;;;;;;5034263;28;20052;-80
2021/09/17 11:21:37;;;;;;;23.90;6.93;;;819.70;1408.00;;;;;;5034304;28;20024;-79
2021/09/17 11:24:04;;;;;;;26.58;7.68;;;819.70;1408.00;;;;;;5031663;28;20014;-78
2021/09/17 11:26:32;;;;;;;23.75;8.40;;;819.80;1382.40;;;;;;5032653;28;20048;-79
2021/09/17 11:29:07;;;;;;;22.85;7.05;;;819.30;1408.00;;;;;;5033784;28;20044;-80
2021/09/17 11:31:52;;;;;;;26.05;7.72;;;794.50;1433.60;;;;;;5034478;28;20734;-79
2021/09/17 11:34:21;;;;;;;19.30;6.00;;;819.40;1433.60;;;;;;5032693;28;20022;-79
2021/09/17 11:37:08;;;;;;;16.48;6.65;;;819.80;1408.00;;;;;;5033024;28;20080;-79
2021/09/17 11:39:39;;;;;;;15.68;6.65;;;820.00;1356.80;;;;;;5033533;28;20032;-80
2021/09/17 11:42:12;;;;;;;23.08;7.50;;;819.70;1331.20;;;;;;5034151;28;20018;-78
2021/09/17 11:44:43;;;;;;;26.08;7.05;;;819.60;1382.40;;;;;;5033812;28;20010;-79
2021/09/17 11:47:12;;;;;;;17.10;6.95;;;819.80;1382.40;;;;;;5034032;28;20048;-78
2021/09/17 11:49:43;;;;;;;22.83;6.93;;;819.60;1382.40;;;;;;5033887;28;20373;-78
2021/09/17 11:52:11;;;;;;;21.35;6.95;;;819.30;1408.00;;;;;;5033871;28;20018;-79
2021/09/17 11:54:37;;;;;;;18.02;6.80;;;794.30;1433.60;;;;;;5033996;28;20018;-79
2021/09/17 11:57:07;;;;;;;19.33;6.70;;;794.20;1433.60;;;;;;5033792;28;20044;-79
2021/09/17 11:59:41;;;;;;;15.75;6.28;;;794.00;1459.20;;;;;;5032451;28;20164;-77
2021/09/17 12:02:26;;;;;;;20.23;7.10;;;793.80;1408.00;;;;;;5034725;28;20437;-80
2021/09/17 12:04:56;;;;;;;24.83;7.00;;;768.90;1433.60;;;;;;5033997;28;20112;-79